createdAt,value
2022-11-23T00:01:37.387Z,25.57
2022-11-23T00:04:13.401Z,25.61
2022-11-23T00:06:42.257Z,25.63
2022-11-23T00:09:12.714Z,25.66
2022-11-23T00:11:40.990Z,25.70
2022-11-23T00:14:09.514Z,25.72
2022-11-23T00:16:37.899Z,25.77
2022-11-23T00:19:06.241Z,25.82
2022-11-23T00:21:34.866Z,25.86
2022-11-23T00:24:03.680Z,25.92
2022-11-23T00:26:32.029Z,25.95
2022-11-23T00:29:00.349Z,26.00
2022-11-23T00:31:28.929Z,26.04
2022-11-23T00:33:58.807Z,26.08
2022-11-23T00:36:28.401Z,26.13
2022-11-23T00:38:58.582Z,26.16
2022-11-23T00:41:28.745Z,26.22
2022-11-23T00:43:57.309Z,26.28
2022-11-23T00:46:30.031Z,26.31
2022-11-23T00:48:59.056Z,26.37
2022-11-23T00:51:30.946Z,26.40
2022-11-23T00:54:00.819Z,26.44
2022-11-23T00:56:30.303Z,26.47
2022-11-23T00:59:00.460Z,26.51
2022-11-23T01:01:31.913Z,26.55
2022-11-23T01:04:01.381Z,26.59
2022-11-23T01:06:38.511Z,26.64
2022-11-23T01:09:10.264Z,26.68
2022-11-23T01:11:38.663Z,26.72
2022-11-23T01:14:07.401Z,26.76
2022-11-23T01:16:41.673Z,26.80
2022-11-23T01:19:13.317Z,26.84
2022-11-23T01:21:41.870Z,26.88
2022-11-23T01:24:24.447Z,26.90
2022-11-23T01:26:56.968Z,26.94
2022-11-23T01:29:25.758Z,26.96
2022-11-23T01:31:54.045Z,26.98
2022-11-23T01:34:22.324Z,27.02
2022-11-23T01:36:50.625Z,27.08
2022-11-23T01:39:19.058Z,27.14
2022-11-23T01:41:47.591Z,27.17
2022-11-23T01:44:28.430Z,27.25
2022-11-23T01:47:00.401Z,27.27
2022-11-23T01:49:50.756Z,27.32
2022-11-23T01:52:27.058Z,27.34
2022-11-23T01:54:58.180Z,27.38
2022-11-23T01:57:33.039Z,27.39
2022-11-23T02:00:01.831Z,27.40
2022-11-23T02:02:32.475Z,27.43
2022-11-23T02:05:03.564Z,27.45
2022-11-23T02:07:33.840Z,27.49
2022-11-23T02:10:02.596Z,27.52
2022-11-23T02:12:30.897Z,27.57
2022-11-23T02:14:59.235Z,27.63
2022-11-23T02:17:27.548Z,27.68
2022-11-23T02:20:09.038Z,27.75
2022-11-23T02:22:58.858Z,27.81
2022-11-23T02:25:34.960Z,27.90
2022-11-23T02:28:03.868Z,27.97
2022-11-23T02:30:33.595Z,28.07
2022-11-23T02:33:06.426Z,28.12
2022-11-23T02:35:36.074Z,28.16
2022-11-23T02:38:08.151Z,28.21
2022-11-23T02:40:37.957Z,28.28
2022-11-23T02:43:06.502Z,28.34
2022-11-23T02:45:44.789Z,28.44
2022-11-23T02:48:13.357Z,28.50
2022-11-23T02:50:41.657Z,28.61
2022-11-23T02:53:10.082Z,28.71
2022-11-23T02:55:38.749Z,28.81
2022-11-23T02:58:07.814Z,28.88
2022-11-23T03:00:36.819Z,28.97
2022-11-23T03:03:05.927Z,29.07
2022-11-23T03:05:34.570Z,29.15
2022-11-23T03:08:02.865Z,29.20
2022-11-23T03:10:31.576Z,29.27
2022-11-23T03:12:59.863Z,29.34
2022-11-23T03:15:28.157Z,29.40
2022-11-23T03:17:58.855Z,29.45
2022-11-23T03:20:27.135Z,29.47
2022-11-23T03:22:55.430Z,29.50
2022-11-23T03:25:23.711Z,29.55
2022-11-23T03:27:51.965Z,29.61
2022-11-23T03:30:20.420Z,29.65
2022-11-23T03:32:48.714Z,29.69
2022-11-23T03:35:17.010Z,29.71
2022-11-23T03:37:45.384Z,29.70
2022-11-23T03:40:14.037Z,29.70
2022-11-23T03:42:42.879Z,29.70
2022-11-23T03:45:11.783Z,29.71
2022-11-23T03:47:40.098Z,29.70
2022-11-23T03:50:08.986Z,29.75
2022-11-23T03:52:37.265Z,29.78
2022-11-23T03:55:05.971Z,29.80
2022-11-23T03:57:34.472Z,29.83
2022-11-23T04:00:03.027Z,29.88
2022-11-23T04:02:31.300Z,29.96
2022-11-23T04:04:59.556Z,30.06
2022-11-23T04:07:28.183Z,30.14
2022-11-23T04:09:56.563Z,30.22
2022-11-23T04:12:25.418Z,30.30
2022-11-23T04:14:53.893Z,30.39
2022-11-23T04:17:22.185Z,30.47
2022-11-23T04:19:50.461Z,30.55
2022-11-23T04:22:18.743Z,30.65
2022-11-23T04:24:46.989Z,30.69
2022-11-23T04:27:15.263Z,30.76
2022-11-23T04:29:43.563Z,30.81
2022-11-23T04:32:11.869Z,30.84
2022-11-23T04:34:40.165Z,30.87
2022-11-23T04:37:13.055Z,30.88
2022-11-23T04:39:41.933Z,30.93
2022-11-23T04:42:14.262Z,31.00
2022-11-23T04:44:42.546Z,31.07
2022-11-23T04:47:11.999Z,31.17
2022-11-23T04:49:40.312Z,31.26
2022-11-23T04:52:08.608Z,31.32
2022-11-23T04:54:36.969Z,31.41
2022-11-23T04:57:05.356Z,31.43
2022-11-23T04:59:33.850Z,31.45
2022-11-23T05:02:02.457Z,31.46
2022-11-23T05:04:30.766Z,31.43
2022-11-23T05:06:59.103Z,31.42
2022-11-23T05:09:27.404Z,31.43
2022-11-23T05:11:55.741Z,31.41
2022-11-23T05:14:24.016Z,31.40
2022-11-23T05:16:52.296Z,31.37
2022-11-23T05:19:20.611Z,31.33
2022-11-23T05:21:48.955Z,31.27
2022-11-23T05:24:17.299Z,31.22
2022-11-23T05:26:45.564Z,31.17
2022-11-23T05:29:13.840Z,31.15
2022-11-23T05:31:42.112Z,31.15
2022-11-23T05:34:10.576Z,31.18
2022-11-23T05:36:42.275Z,31.23
2022-11-23T05:39:10.906Z,31.29
2022-11-23T05:41:39.175Z,31.39
2022-11-23T05:44:07.521Z,31.50
2022-11-23T05:46:35.846Z,31.66
2022-11-23T05:49:04.137Z,31.78
2022-11-23T05:51:33.150Z,31.88
2022-11-23T05:54:03.685Z,31.98
2022-11-23T05:56:35.797Z,32.06
2022-11-23T05:59:06.343Z,32.15
2022-11-23T06:01:34.985Z,32.19
2022-11-23T06:04:03.506Z,32.22
2022-11-23T06:06:31.772Z,32.21
2022-11-23T06:09:00.098Z,32.24
2022-11-23T06:11:28.380Z,32.25
2022-11-23T06:13:56.655Z,32.28
2022-11-23T06:16:25.130Z,32.27
2022-11-23T06:18:53.711Z,32.26
2022-11-23T06:21:22.036Z,32.31
2022-11-23T06:23:51.010Z,32.35
2022-11-23T06:26:19.344Z,32.39
2022-11-23T06:28:47.722Z,32.45
2022-11-23T06:31:15.982Z,32.48
2022-11-23T06:33:44.307Z,32.51
2022-11-23T06:36:13.519Z,32.48
2022-11-23T06:38:41.785Z,32.43
2022-11-23T06:41:10.227Z,32.28
2022-11-23T06:43:38.551Z,32.16
2022-11-23T06:46:08.494Z,32.00
2022-11-23T06:48:36.928Z,31.83
2022-11-23T06:51:05.374Z,31.57
2022-11-23T06:53:33.637Z,31.36
2022-11-23T06:56:02.272Z,31.21
2022-11-23T06:58:30.865Z,30.99
2022-11-23T07:01:04.162Z,30.79
2022-11-23T07:03:32.912Z,30.67
2022-11-23T07:06:01.325Z,30.56
2022-11-23T07:08:29.631Z,30.36
2022-11-23T07:11:02.442Z,30.27
2022-11-23T07:13:30.811Z,30.20
2022-11-23T07:16:00.028Z,30.12
2022-11-23T07:18:28.668Z,30.02
2022-11-23T07:20:59.979Z,29.96
2022-11-23T07:23:28.652Z,29.85
2022-11-23T07:25:56.953Z,29.79
2022-11-23T07:28:25.266Z,29.74
2022-11-23T07:30:53.911Z,29.70
2022-11-23T07:33:22.266Z,29.69
2022-11-23T07:35:50.551Z,29.68
2022-11-23T07:38:18.893Z,29.70
2022-11-23T07:40:52.145Z,29.62
2022-11-23T07:43:20.469Z,29.54
2022-11-23T07:45:48.756Z,29.47
2022-11-23T07:48:17.568Z,29.39
2022-11-23T07:50:45.892Z,29.32
2022-11-23T07:53:14.195Z,29.27
2022-11-23T07:55:42.613Z,29.15
2022-11-23T07:58:11.532Z,29.02
2022-11-23T08:00:39.968Z,28.93
2022-11-23T08:05:56.763Z,28.83
2022-11-23T08:08:25.085Z,28.78
2022-11-23T08:10:54.484Z,28.69
2022-11-23T08:13:24.027Z,28.59
2022-11-23T08:15:55.336Z,28.48
2022-11-23T08:18:25.231Z,28.42
2022-11-23T08:20:53.813Z,28.36
2022-11-23T08:23:22.751Z,28.34
2022-11-23T08:25:51.032Z,28.35
2022-11-23T08:28:19.787Z,28.36
2022-11-23T08:30:49.091Z,28.38
2022-11-23T08:33:17.805Z,28.38
2022-11-23T08:35:46.289Z,28.39
2022-11-23T08:38:14.976Z,28.39
2022-11-23T08:40:43.287Z,28.41
2022-11-23T08:43:11.580Z,28.41
2022-11-23T08:45:39.885Z,28.41
2022-11-23T08:48:08.532Z,28.42
2022-11-23T08:50:38.034Z,28.40
2022-11-23T08:53:06.625Z,28.38
2022-11-23T08:55:34.990Z,28.37
2022-11-23T08:58:03.334Z,28.37
2022-11-23T09:00:31.930Z,28.37
2022-11-23T09:03:00.893Z,28.37
2022-11-23T09:05:30.795Z,28.39
2022-11-23T09:08:02.186Z,28.43
2022-11-23T09:10:30.554Z,28.47
2022-11-23T09:13:00.384Z,28.49
2022-11-23T09:15:28.829Z,28.51
2022-11-23T09:17:58.714Z,28.56
2022-11-23T09:20:27.466Z,28.56
2022-11-23T09:22:56.590Z,28.56
2022-11-23T09:25:25.015Z,28.56
2022-11-23T09:28:01.645Z,28.55
2022-11-23T09:30:30.051Z,28.55
2022-11-23T09:32:58.982Z,28.53
2022-11-23T09:35:27.476Z,28.51
2022-11-23T09:38:02.406Z,28.48
2022-11-23T09:40:34.259Z,28.45
2022-11-23T09:43:23.723Z,28.39
2022-11-23T09:45:56.274Z,28.34
2022-11-23T09:48:36.486Z,28.28
2022-11-23T09:51:24.490Z,28.22
2022-11-23T09:54:01.353Z,28.15
2022-11-23T09:56:33.768Z,28.10
2022-11-23T09:59:07.269Z,28.03
2022-11-23T10:01:35.657Z,27.97
2022-11-23T10:04:05.968Z,27.92
2022-11-23T10:06:41.596Z,27.89
2022-11-23T10:09:18.595Z,27.85
2022-11-23T10:11:55.565Z,27.84
2022-11-23T10:14:50.240Z,27.81
2022-11-23T10:17:53.771Z,27.78
2022-11-23T10:20:56.369Z,27.76
2022-11-23T10:23:41.436Z,27.75
2022-11-23T10:26:21.063Z,27.72
2022-11-23T10:28:51.928Z,27.69
2022-11-23T10:31:22.648Z,27.68
2022-11-23T10:34:11.869Z,27.66
2022-11-23T10:36:41.318Z,27.61
2022-11-23T10:39:29.229Z,27.62
2022-11-23T10:42:03.056Z,27.60
2022-11-23T10:44:38.924Z,27.58
2022-11-23T10:47:07.275Z,27.57
2022-11-23T10:49:37.078Z,27.55
2022-11-23T10:52:30.636Z,27.53
2022-11-23T10:55:10.088Z,27.50
2022-11-23T10:57:46.563Z,27.48
2022-11-23T11:00:15.064Z,27.46
2022-11-23T11:02:46.205Z,27.43
2022-11-23T11:05:46.399Z,27.40
2022-11-23T11:08:20.715Z,27.38
2022-11-23T11:11:04.111Z,27.37
2022-11-23T11:13:48.247Z,27.34
2022-11-23T11:16:34.002Z,27.33
2022-11-23T11:19:32.487Z,27.33
2022-11-23T11:22:03.824Z,27.31
2022-11-23T11:24:32.451Z,27.29
2022-11-23T11:27:07.817Z,27.27
2022-11-23T11:29:41.020Z,27.25
2022-11-23T11:32:12.001Z,27.24
2022-11-23T11:34:52.043Z,27.22
2022-11-23T11:37:32.749Z,27.22
2022-11-23T11:40:21.326Z,27.21
2022-11-23T11:42:58.921Z,27.20
2022-11-23T11:45:32.712Z,27.20
2022-11-23T11:48:09.441Z,27.19
2022-11-23T11:50:50.838Z,27.18
2022-11-23T11:53:26.133Z,27.17
2022-11-23T11:56:14.229Z,27.17
2022-11-23T11:58:50.992Z,27.17
2022-11-23T12:01:26.644Z,27.18
2022-11-23T12:04:08.411Z,27.17
2022-11-23T12:06:47.582Z,27.18
2022-11-23T12:09:28.346Z,27.15
2022-11-23T12:11:56.730Z,27.16
2022-11-23T12:14:25.563Z,27.14
2022-11-23T12:17:45.000Z,27.08
2022-11-23T12:20:26.330Z,26.97
2022-11-23T12:23:20.374Z,26.72
2022-11-23T12:29:54.570Z,26.01
2022-11-23T12:32:45.372Z,25.75
2022-11-23T12:35:35.974Z,25.51
2022-11-23T12:38:35.145Z,25.35
2022-11-23T12:41:24.804Z,25.23
2022-11-23T12:44:16.179Z,25.15
2022-11-23T12:47:13.920Z,25.08
2022-11-23T12:50:05.009Z,25.02
2022-11-23T12:52:59.230Z,24.99
2022-11-23T12:55:45.971Z,24.94
2022-11-23T12:58:30.280Z,24.91
2022-11-23T13:01:07.874Z,24.89
2022-11-23T13:03:54.405Z,24.87
2022-11-23T13:07:05.666Z,24.85
2022-11-23T13:09:53.272Z,24.83
2022-11-23T13:12:54.031Z,24.80
2022-11-23T13:15:54.415Z,24.78
2022-11-23T13:19:02.985Z,24.79
2022-11-23T13:21:44.969Z,24.78
2022-11-23T13:24:32.266Z,24.79
2022-11-23T13:27:16.119Z,24.78
2022-11-23T13:29:53.568Z,24.80
2022-11-23T13:32:54.484Z,24.78
2022-11-23T13:35:22.739Z,24.80
2022-11-23T13:38:03.036Z,24.79
2022-11-23T13:40:36.427Z,24.82
2022-11-23T13:43:21.613Z,24.83
2022-11-23T13:46:33.155Z,24.84
2022-11-23T13:49:01.701Z,24.85
2022-11-23T13:51:33.303Z,24.86
2022-11-23T13:54:22.449Z,24.86
2022-11-23T13:57:02.757Z,24.86
2022-11-23T13:59:33.137Z,24.87
2022-11-23T14:02:11.192Z,24.88
2022-11-23T14:04:44.569Z,24.88
2022-11-23T14:07:30.638Z,24.88
2022-11-23T14:10:16.377Z,24.91
2022-11-23T14:13:02.641Z,24.92
2022-11-23T14:15:36.183Z,24.91
2022-11-23T14:18:31.340Z,24.95
2022-11-23T14:21:02.836Z,24.96
2022-11-23T14:24:14.117Z,24.96
2022-11-23T14:27:31.239Z,24.97
2022-11-23T14:30:43.160Z,24.94
2022-11-23T14:33:34.340Z,24.92
2022-11-23T14:36:08.554Z,24.89
2022-11-23T14:38:55.928Z,24.86
2022-11-23T14:41:30.677Z,24.83
2022-11-23T14:44:01.628Z,24.80
2022-11-23T14:46:29.965Z,24.78
2022-11-23T14:49:07.935Z,24.74
2022-11-23T14:51:40.799Z,24.72
2022-11-23T14:54:12.281Z,24.72
2022-11-23T14:56:47.222Z,24.69
2022-11-23T14:59:18.743Z,24.68
2022-11-23T15:01:54.482Z,24.67
2022-11-23T15:04:38.680Z,24.66
2022-11-23T15:07:31.587Z,24.63
2022-11-23T15:10:31.907Z,24.62
2022-11-23T15:13:00.201Z,24.62
2022-11-23T15:15:31.565Z,24.63
2022-11-23T15:18:02.180Z,24.63
2022-11-23T15:20:58.594Z,24.62
2022-11-23T15:23:51.168Z,24.63
2022-11-23T15:29:32.030Z,24.62
2022-11-23T15:32:28.594Z,24.63
2022-11-23T15:34:51.269Z,24.62
2022-11-23T15:37:20.375Z,24.60
2022-11-23T15:39:49.795Z,24.60
2022-11-23T15:42:23.739Z,24.58
2022-11-23T15:44:54.577Z,24.58
2022-11-23T15:47:31.880Z,24.58
2022-11-23T15:50:09.473Z,24.57
2022-11-23T15:52:39.471Z,24.58
2022-11-23T15:55:13.904Z,24.57
2022-11-23T15:57:43.669Z,24.58
2022-11-23T16:00:25.837Z,24.58
2022-11-23T16:02:54.617Z,24.58
2022-11-23T16:05:24.933Z,24.57
2022-11-23T16:08:00.382Z,24.57
2022-11-23T16:10:38.373Z,24.56
2022-11-23T16:13:09.755Z,24.55
2022-11-23T16:15:45.198Z,24.55
2022-11-23T16:18:19.453Z,24.55
2022-11-23T16:20:56.425Z,24.54
2022-11-23T16:23:55.842Z,24.53
2022-11-23T16:26:34.660Z,24.53
2022-11-23T16:29:04.506Z,24.51
2022-11-23T16:31:38.626Z,24.51
2022-11-23T16:34:33.203Z,24.47
2022-11-23T16:37:04.930Z,24.44
2022-11-23T16:39:33.285Z,24.42
2022-11-23T16:42:01.608Z,24.42
2022-11-23T16:44:32.213Z,24.40
2022-11-23T16:47:22.543Z,24.39
2022-11-23T16:49:52.084Z,24.38
2022-11-23T16:52:21.003Z,24.39
2022-11-23T16:54:49.663Z,24.38
2022-11-23T16:57:39.347Z,24.37
2022-11-23T17:00:23.286Z,24.37
2022-11-23T17:02:51.670Z,24.38
2022-11-23T17:05:24.811Z,24.39
2022-11-23T17:07:53.141Z,24.40
2022-11-23T17:10:21.629Z,24.40
2022-11-23T17:12:56.100Z,24.41
2022-11-23T17:15:26.000Z,24.41
2022-11-23T17:17:54.354Z,24.41
2022-11-23T17:20:22.650Z,24.41
2022-11-23T17:22:52.871Z,24.41
2022-11-23T17:25:21.175Z,24.42
2022-11-23T17:27:49.632Z,24.40
2022-11-23T17:30:22.019Z,24.39
2022-11-23T17:32:51.197Z,24.39
2022-11-23T17:35:19.754Z,24.38
2022-11-23T17:37:48.327Z,24.38
2022-11-23T17:40:19.046Z,24.38
2022-11-23T17:42:48.031Z,24.38
2022-11-23T17:45:16.785Z,24.38
2022-11-23T17:47:46.418Z,24.37
2022-11-23T17:50:19.248Z,24.39
2022-11-23T17:52:48.597Z,24.39
2022-11-23T17:55:17.508Z,24.40
2022-11-23T17:57:45.911Z,24.41
2022-11-23T18:00:22.743Z,24.41
2022-11-23T18:02:51.494Z,24.43
2022-11-23T18:05:21.802Z,24.43
2022-11-23T18:07:51.802Z,24.43
2022-11-23T18:10:20.355Z,24.43
2022-11-23T18:12:48.989Z,24.43
2022-11-23T18:15:17.311Z,24.44
2022-11-23T18:17:45.838Z,24.45
2022-11-23T18:20:14.622Z,24.44
2022-11-23T18:22:43.059Z,24.45
2022-11-23T18:25:11.490Z,24.46
2022-11-23T18:27:39.802Z,24.47
2022-11-23T18:30:09.256Z,24.48
2022-11-23T18:32:37.530Z,24.47
2022-11-23T18:35:06.127Z,24.47
2022-11-23T18:37:34.437Z,24.47
2022-11-23T18:40:02.904Z,24.47
2022-11-23T18:42:31.406Z,24.47
2022-11-23T18:45:02.152Z,24.48
2022-11-23T18:47:30.434Z,24.47
2022-11-23T18:50:02.086Z,24.48
2022-11-23T18:52:34.369Z,24.48
2022-11-23T18:55:02.653Z,24.49
2022-11-23T18:57:31.146Z,24.49
2022-11-23T18:59:59.539Z,24.48
2022-11-23T19:02:27.944Z,24.50
2022-11-23T19:04:56.327Z,24.51
2022-11-23T19:07:27.216Z,24.51
2022-11-23T19:09:55.995Z,24.50
2022-11-23T19:12:24.602Z,24.53
2022-11-23T19:14:52.857Z,24.52
2022-11-23T19:17:21.196Z,24.53
2022-11-23T19:19:49.460Z,24.53
2022-11-23T19:22:17.766Z,24.54
2022-11-23T19:24:46.033Z,24.54
2022-11-23T19:27:14.323Z,24.52
2022-11-23T19:29:42.627Z,24.52
2022-11-23T19:32:10.891Z,24.52
2022-11-23T19:34:39.158Z,24.49
2022-11-23T19:37:07.429Z,24.49
2022-11-23T19:39:35.887Z,24.46
2022-11-23T19:42:04.896Z,24.45
2022-11-23T19:44:33.164Z,24.44
2022-11-23T19:47:02.875Z,24.43
2022-11-23T19:49:32.394Z,24.43
2022-11-23T19:52:00.861Z,24.42
2022-11-23T19:54:29.635Z,24.41
2022-11-23T19:56:58.012Z,24.41
2022-11-23T19:59:26.794Z,24.42
2022-11-23T20:01:55.124Z,24.41
2022-11-23T20:04:23.421Z,24.41
2022-11-23T20:06:52.557Z,24.44
2022-11-23T20:09:21.970Z,24.46
2022-11-23T20:11:51.557Z,24.46
2022-11-23T20:14:21.207Z,24.46
2022-11-23T20:16:49.529Z,24.47
2022-11-23T20:19:17.866Z,24.48
2022-11-23T20:21:46.149Z,24.48
2022-11-23T20:24:15.512Z,24.48
2022-11-23T20:26:44.187Z,24.49
2022-11-23T20:29:14.624Z,24.51
2022-11-23T20:31:43.149Z,24.53
2022-11-23T20:34:16.654Z,24.52
2022-11-23T20:36:48.228Z,24.54
2022-11-23T20:39:17.049Z,24.54
2022-11-23T20:41:46.085Z,24.56
2022-11-23T20:44:15.746Z,24.56
2022-11-23T20:49:33.544Z,24.57
2022-11-23T20:52:02.792Z,24.56
2022-11-23T20:54:32.808Z,24.55
2022-11-23T20:57:01.364Z,24.54
2022-11-23T20:59:29.844Z,24.52
2022-11-23T21:01:58.243Z,24.51
2022-11-23T21:04:26.779Z,24.50
2022-11-23T21:06:55.563Z,24.50
2022-11-23T21:09:23.929Z,24.50
2022-11-23T21:12:10.557Z,24.50
2022-11-23T21:14:38.991Z,24.49
2022-11-23T21:17:07.560Z,24.48
2022-11-23T21:19:38.470Z,24.47
2022-11-23T21:22:09.344Z,24.46
2022-11-23T21:24:37.984Z,24.46
2022-11-23T21:27:08.971Z,24.46
2022-11-23T21:29:37.336Z,24.48
2022-11-23T21:32:06.509Z,24.48
2022-11-23T21:34:35.041Z,24.49
2022-11-23T21:37:03.508Z,24.50
2022-11-23T21:39:32.189Z,24.52
2022-11-23T21:42:00.504Z,24.52
2022-11-23T21:44:28.939Z,24.53
2022-11-23T21:46:57.601Z,24.54
2022-11-23T21:49:28.824Z,24.56
2022-11-23T21:51:57.187Z,24.58
2022-11-23T21:54:25.487Z,24.57
2022-11-23T21:56:53.855Z,24.59
2022-11-23T21:59:23.080Z,24.60
2022-11-23T22:01:51.504Z,24.62
2022-11-23T22:04:20.018Z,24.60
2022-11-23T22:06:48.341Z,24.62
2022-11-23T22:09:16.825Z,24.62
2022-11-23T22:11:46.101Z,24.62
2022-11-23T22:14:18.023Z,24.62
2022-11-23T22:16:50.868Z,24.64
2022-11-23T22:19:19.849Z,24.63
2022-11-23T22:21:48.291Z,24.63
2022-11-23T22:24:22.125Z,24.64
2022-11-23T22:26:50.445Z,24.62
2022-11-23T22:29:18.780Z,24.63
2022-11-23T22:31:47.203Z,24.64
2022-11-23T22:34:15.932Z,24.63
2022-11-23T22:36:44.478Z,24.61
2022-11-23T22:39:12.918Z,24.61
2022-11-23T22:41:41.831Z,24.60
2022-11-23T22:44:11.792Z,24.58
2022-11-23T22:46:40.917Z,24.58
2022-11-23T22:49:09.341Z,24.57
2022-11-23T22:51:37.755Z,24.57
2022-11-23T22:54:06.319Z,24.57
2022-11-23T22:56:35.137Z,24.56
2022-11-23T22:59:03.506Z,24.57
2022-11-23T23:01:32.444Z,24.56
2022-11-23T23:04:03.694Z,24.55
2022-11-23T23:06:37.285Z,24.55
2022-11-23T23:09:08.380Z,24.55
2022-11-23T23:11:37.900Z,24.55
2022-11-23T23:14:07.146Z,24.55
2022-11-23T23:16:36.168Z,24.54
2022-11-23T23:19:04.962Z,24.54
2022-11-23T23:21:33.308Z,24.55
2022-11-23T23:24:04.710Z,24.56
2022-11-23T23:26:33.155Z,24.55
2022-11-23T23:29:02.387Z,24.57
2022-11-23T23:31:31.468Z,24.56
2022-11-23T23:34:01.113Z,24.58
2022-11-23T23:36:30.896Z,24.58
2022-11-23T23:38:59.362Z,24.58
2022-11-23T23:41:27.794Z,24.59
2022-11-23T23:43:56.271Z,24.62
2022-11-23T23:46:24.794Z,24.64
2022-11-23T23:48:53.322Z,24.64
2022-11-23T23:51:25.692Z,24.67
2022-11-23T23:53:54.384Z,24.68
2022-11-23T23:56:25.326Z,24.68
2022-11-23T23:58:55.842Z,24.68
